Sunbury, PA

8:59 AM EDT on September 16, 2014 (GMT -0400)
Williamsport Rgnl | Change Station
CLOSE
Current Station
Airport
Location: Williamsport,
Elevation: 525 ft
Nearby Weather Stations

Elev 525 ft 41.24 °N, 76.92 °W | Updated 5 minutes ago

Overcast
Overcast
57 °F
Feels Like 57 °F
N
8
Wind Variable Wind from West

Today
High -- | Low -- °F
--% Chance of Precip.
Yesterday
High -- | Low -- °F
Precip. -- in
6:48 AM 7:14 PM
Last Quarter, 46% visible
Pressure 30.05 in
Visibility 10.0 miles
Clouds Few 2400 ft
Mostly Cloudy 3600 ft
Overcast 6500 ft
Dew Point 53 °F
Humidity 87%
Rainfall 0.02 in
Snow Depth Not available.
UV 1 out of 12
Pollen 2.30 out of 12
Air Quality Not available.
Flu Activity Not available.
METAR KIPT 161254Z 27007KT 10SM FEW024 BKN036 OVC065 14/12 A3005 RMK AO2 SLP174 T01390117

More Conditions Fewer Conditions

Pressure 30.05 in
Visibility 10.0 miles
Clouds Few 2400 ft
Mostly Cloudy 3600 ft
Overcast 6500 ft
Dew Point 53 °F
Humidity 87%
Rainfall 0.02 in
Snow Depth Not available.
UV 1 out of 12
Pollen 2.30 out of 12
Air Quality Not available.
Flu Activity Not available.
METAR KIPT 161254Z 27007KT 10SM FEW024 BKN036 OVC065 14/12 A3005 RMK AO2 SLP174 T01390117

More Conditions Fewer Conditions

10-Day Weather Forecast

Almanac

Astronomy

Sep. 16, 2014 Rise Set
Actual Time 6:48 AM EDT 7:14 PM EDT
Civil Twilight 6:20 AM EDT 7:41 PM EDT
Nautical Twilight 5:48 AM EDT 8:14 PM EDT
Astronomical Twilight 5:15 AM EDT 8:47 PM EDT
Moon No Moon Rise 2:38 PM EDT
Length of Visible Light 13h 20m
Length of Day
12h 25m
Tomorrow will be 2m 40s shorter.
Last Quarter, 46% of the Moon is Illuminated
Today
Last Quarter
Sep 24
New
Oct 1
First Quarter
Oct 8
Full
Oct 15
Last Quarter

Today's Extremes

State Highs State Lows

Community

WunderPhotos

Upload Photos

1,753,756 photos uploaded!

Nearby

Snow Depth

Station Depth Elevation
No new snow has been reported.

Earthquake Activity

City Distance Mag. Time & Date
No recent earthquake activity has been reported nearby.
Minimum magnitude displayed is 2.5.

Coastal Water Temperatures

Place Temperature
No Stations Reporting

Nearby Weather Stations